sensor_id;sensor_type;location;lat;lon;timestamp;P1;durP1;ratioP1;P2;durP2;ratioP2
25091;SDS011;13082;52.374;4.946;2022-08-11T00:00:34;3.72;;;2.63;;
25091;SDS011;13082;52.374;4.946;2022-08-11T00:03:09;6.15;;;2.90;;
25091;SDS011;13082;52.374;4.946;2022-08-11T00:05:46;6.10;;;3.28;;
25091;SDS011;13082;52.374;4.946;2022-08-11T00:08:21;5.20;;;3.25;;
25091;SDS011;13082;52.374;4.946;2022-08-11T00:10:53;2.60;;;2.40;;
25091;SDS011;13082;52.374;4.946;2022-08-11T00:13:21;3.15;;;2.85;;
25091;SDS011;13082;52.374;4.946;2022-08-11T00:15:55;5.75;;;3.35;;
25091;SDS011;13082;52.374;4.946;2022-08-11T00:18:21;4.13;;;3.33;;
25091;SDS011;13082;52.374;4.946;2022-08-11T00:20:47;6.50;;;2.65;;
25091;SDS011;13082;52.374;4.946;2022-08-11T00:23:15;4.00;;;3.10;;
25091;SDS011;13082;52.374;4.946;2022-08-11T00:25:44;3.85;;;2.97;;
25091;SDS011;13082;52.374;4.946;2022-08-11T00:28:24;4.00;;;3.53;;
25091;SDS011;13082;52.374;4.946;2022-08-11T00:31:02;4.20;;;3.35;;
25091;SDS011;13082;52.374;4.946;2022-08-11T00:33:39;2.90;;;2.60;;
25091;SDS011;13082;52.374;4.946;2022-08-11T00:36:08;3.60;;;2.83;;
25091;SDS011;13082;52.374;4.946;2022-08-11T00:38:39;2.70;;;2.50;;
25091;SDS011;13082;52.374;4.946;2022-08-11T00:43:58;3.03;;;2.72;;
25091;SDS011;13082;52.374;4.946;2022-08-11T00:55:11;4.10;;;2.83;;
25091;SDS011;13082;52.374;4.946;2022-08-11T01:09:30;2.85;;;2.65;;
25091;SDS011;13082;52.374;4.946;2022-08-11T01:25:58;3.00;;;2.70;;
25091;SDS011;13082;52.374;4.946;2022-08-11T01:46:51;2.70;;;2.47;;
25091;SDS011;13082;52.374;4.946;2022-08-11T02:01:40;4.15;;;2.45;;
25091;SDS011;13082;52.374;4.946;2022-08-11T02:07:17;4.32;;;3.22;;
25091;SDS011;13082;52.374;4.946;2022-08-11T02:10:06;5.03;;;3.10;;
25091;SDS011;13082;52.374;4.946;2022-08-11T02:12:58;2.58;;;2.38;;
25091;SDS011;13082;52.374;4.946;2022-08-11T02:15:34;3.10;;;2.65;;
25091;SDS011;13082;52.374;4.946;2022-08-11T02:18:17;4.72;;;2.90;;
25091;SDS011;13082;52.374;4.946;2022-08-11T02:21:12;3.55;;;2.88;;
25091;SDS011;13082;52.374;4.946;2022-08-11T02:24:05;4.10;;;3.20;;
25091;SDS011;13082;52.374;4.946;2022-08-11T02:26:45;3.60;;;2.85;;
25091;SDS011;13082;52.374;4.946;2022-08-11T02:29:18;3.10;;;2.80;;
25091;SDS011;13082;52.374;4.946;2022-08-11T02:32:03;3.85;;;3.17;;
25091;SDS011;13082;52.374;4.946;2022-08-11T02:35:24;3.92;;;3.03;;
25091;SDS011;13082;52.374;4.946;2022-08-11T02:40:46;5.72;;;3.50;;
25091;SDS011;13082;52.374;4.946;2022-08-11T02:46:00;3.90;;;3.15;;
25091;SDS011;13082;52.374;4.946;2022-08-11T02:52:08;3.67;;;3.22;;
25091;SDS011;13082;52.374;4.946;2022-08-11T02:55:09;3.53;;;3.22;;
25091;SDS011;13082;52.374;4.946;2022-08-11T03:00:12;3.88;;;3.10;;
25091;SDS011;13082;52.374;4.946;2022-08-11T03:10:33;5.88;;;3.20;;
25091;SDS011;13082;52.374;4.946;2022-08-11T03:13:14;6.15;;;3.30;;
25091;SDS011;13082;52.374;4.946;2022-08-11T03:19:23;5.45;;;3.90;;
25091;SDS011;13082;52.374;4.946;2022-08-11T03:32:48;3.65;;;3.30;;
25091;SDS011;13082;52.374;4.946;2022-08-11T03:35:41;3.88;;;3.05;;
25091;SDS011;13082;52.374;4.946;2022-08-11T03:38:13;4.07;;;3.25;;
25091;SDS011;13082;52.374;4.946;2022-08-11T03:40:51;3.47;;;3.05;;
25091;SDS011;13082;52.374;4.946;2022-08-11T03:43:58;3.65;;;3.35;;
25091;SDS011;13082;52.374;4.946;2022-08-11T03:53:07;3.25;;;2.95;;
25091;SDS011;13082;52.374;4.946;2022-08-11T04:04:22;4.00;;;3.53;;
25091;SDS011;13082;52.374;4.946;2022-08-11T04:26:20;6.13;;;3.78;;
25091;SDS011;13082;52.374;4.946;2022-08-11T04:32:27;4.18;;;3.78;;
25091;SDS011;13082;52.374;4.946;2022-08-11T04:35:25;4.68;;;3.47;;
25091;SDS011;13082;52.374;4.946;2022-08-11T04:57:01;4.55;;;3.97;;
25091;SDS011;13082;52.374;4.946;2022-08-11T05:08:51;4.68;;;4.15;;
25091;SDS011;13082;52.374;4.946;2022-08-11T05:14:26;4.25;;;3.10;;
25091;SDS011;13082;52.374;4.946;2022-08-11T05:17:16;4.53;;;3.20;;
25091;SDS011;13082;52.374;4.946;2022-08-11T05:20:20;4.55;;;3.70;;
25091;SDS011;13082;52.374;4.946;2022-08-11T05:23:08;3.78;;;3.38;;
25091;SDS011;13082;52.374;4.946;2022-08-11T05:25:54;4.95;;;3.47;;
25091;SDS011;13082;52.374;4.946;2022-08-11T05:28:46;6.28;;;3.30;;
25091;SDS011;13082;52.374;4.946;2022-08-11T05:31:35;5.35;;;3.05;;
25091;SDS011;13082;52.374;4.946;2022-08-11T05:34:26;4.75;;;3.38;;
25091;SDS011;13082;52.374;4.946;2022-08-11T05:37:21;4.65;;;3.15;;
25091;SDS011;13082;52.374;4.946;2022-08-11T05:40:10;3.45;;;3.03;;
25091;SDS011;13082;52.374;4.946;2022-08-11T05:42:56;6.75;;;3.90;;
25091;SDS011;13082;52.374;4.946;2022-08-11T05:45:41;4.03;;;3.33;;
25091;SDS011;13082;52.374;4.946;2022-08-11T05:48:31;4.70;;;3.58;;
25091;SDS011;13082;52.374;4.946;2022-08-11T05:51:16;7.22;;;3.40;;
25091;SDS011;13082;52.374;4.946;2022-08-11T05:54:02;7.22;;;4.43;;
25091;SDS011;13082;52.374;4.946;2022-08-11T05:56:51;4.05;;;3.10;;
25091;SDS011;13082;52.374;4.946;2022-08-11T05:59:22;5.32;;;3.60;;
25091;SDS011;13082;52.374;4.946;2022-08-11T06:01:50;5.47;;;4.25;;
25091;SDS011;13082;52.374;4.946;2022-08-11T06:04:20;4.07;;;3.63;;
25091;SDS011;13082;52.374;4.946;2022-08-11T06:09:20;4.75;;;3.55;;
25091;SDS011;13082;52.374;4.946;2022-08-11T06:11:46;5.20;;;3.88;;
25091;SDS011;13082;52.374;4.946;2022-08-11T06:14:12;4.78;;;3.45;;
25091;SDS011;13082;52.374;4.946;2022-08-11T06:16:40;4.13;;;3.10;;
25091;SDS011;13082;52.374;4.946;2022-08-11T06:19:06;4.10;;;3.70;;
25091;SDS011;13082;52.374;4.946;2022-08-11T06:21:33;5.57;;;3.10;;
25091;SDS011;13082;52.374;4.946;2022-08-11T06:24:00;4.75;;;3.60;;
25091;SDS011;13082;52.374;4.946;2022-08-11T06:26:29;3.75;;;3.25;;
25091;SDS011;13082;52.374;4.946;2022-08-11T06:28:56;6.03;;;3.80;;
25091;SDS011;13082;52.374;4.946;2022-08-11T06:31:25;6.32;;;3.53;;
25091;SDS011;13082;52.374;4.946;2022-08-11T06:33:54;4.45;;;3.45;;
25091;SDS011;13082;52.374;4.946;2022-08-11T06:41:56;7.55;;;3.70;;
25091;SDS011;13082;52.374;4.946;2022-08-11T06:44:38;7.00;;;4.22;;
25091;SDS011;13082;52.374;4.946;2022-08-11T06:47:10;3.50;;;3.00;;
25091;SDS011;13082;52.374;4.946;2022-08-11T06:49:38;4.07;;;3.00;;
25091;SDS011;13082;52.374;4.946;2022-08-11T06:52:31;3.65;;;2.88;;
25091;SDS011;13082;52.374;4.946;2022-08-11T06:55:04;4.47;;;3.50;;
25091;SDS011;13082;52.374;4.946;2022-08-11T06:57:36;6.55;;;3.15;;
25091;SDS011;13082;52.374;4.946;2022-08-11T07:00:24;3.45;;;3.15;;
25091;SDS011;13082;52.374;4.946;2022-08-11T07:02:56;4.25;;;2.67;;
25091;SDS011;13082;52.374;4.946;2022-08-11T07:14:03;4.15;;;3.33;;
25091;SDS011;13082;52.374;4.946;2022-08-11T07:16:49;3.92;;;2.90;;
25091;SDS011;13082;52.374;4.946;2022-08-11T07:19:19;5.63;;;3.13;;
25091;SDS011;13082;52.374;4.946;2022-08-11T07:22:07;9.70;;;3.00;;
25091;SDS011;13082;52.374;4.946;2022-08-11T07:25:12;4.60;;;3.13;;
25091;SDS011;13082;52.374;4.946;2022-08-11T07:28:22;3.17;;;2.72;;
25091;SDS011;13082;52.374;4.946;2022-08-11T07:31:09;4.05;;;2.72;;
25091;SDS011;13082;52.374;4.946;2022-08-11T07:33:48;3.30;;;2.95;;
25091;SDS011;13082;52.374;4.946;2022-08-11T07:36:16;4.97;;;3.00;;
25091;SDS011;13082;52.374;4.946;2022-08-11T07:38:44;4.40;;;3.17;;
25091;SDS011;13082;52.374;4.946;2022-08-11T07:41:15;4.50;;;3.30;;
25091;SDS011;13082;52.374;4.946;2022-08-11T07:43:43;4.38;;;2.97;;
25091;SDS011;13082;52.374;4.946;2022-08-11T07:46:13;2.97;;;2.67;;
25091;SDS011;13082;52.374;4.946;2022-08-11T07:48:58;4.82;;;2.70;;
25091;SDS011;13082;52.374;4.946;2022-08-11T07:51:44;3.33;;;2.25;;
25091;SDS011;13082;52.374;4.946;2022-08-11T07:54:29;3.42;;;2.10;;
25091;SDS011;13082;52.374;4.946;2022-08-11T07:56:55;6.38;;;2.90;;
25091;SDS011;13082;52.374;4.946;2022-08-11T07:59:22;3.30;;;2.17;;
25091;SDS011;13082;52.374;4.946;2022-08-11T08:02:08;2.55;;;2.35;;
25091;SDS011;13082;52.374;4.946;2022-08-11T08:04:55;3.30;;;2.63;;
25091;SDS011;13082;52.374;4.946;2022-08-11T08:07:41;2.20;;;2.00;;
25091;SDS011;13082;52.374;4.946;2022-08-11T08:10:26;5.63;;;2.45;;
25091;SDS011;13082;52.374;4.946;2022-08-11T08:13:11;2.65;;;2.38;;
25091;SDS011;13082;52.374;4.946;2022-08-11T08:15:56;2.58;;;2.35;;
25091;SDS011;13082;52.374;4.946;2022-08-11T08:18:41;2.45;;;2.25;;
25091;SDS011;13082;52.374;4.946;2022-08-11T08:21:07;4.03;;;2.60;;
25091;SDS011;13082;52.374;4.946;2022-08-11T08:23:40;2.50;;;2.30;;
25091;SDS011;13082;52.374;4.946;2022-08-11T08:26:08;2.35;;;2.15;;
25091;SDS011;13082;52.374;4.946;2022-08-11T08:28:56;3.70;;;2.28;;
25091;SDS011;13082;52.374;4.946;2022-08-11T08:31:44;2.65;;;2.10;;
25091;SDS011;13082;52.374;4.946;2022-08-11T08:34:12;3.97;;;2.13;;
25091;SDS011;13082;52.374;4.946;2022-08-11T08:36:41;6.70;;;2.20;;
25091;SDS011;13082;52.374;4.946;2022-08-11T08:39:08;4.63;;;2.33;;
25091;SDS011;13082;52.374;4.946;2022-08-11T08:41:35;2.53;;;2.33;;
25091;SDS011;13082;52.374;4.946;2022-08-11T08:44:05;2.25;;;1.98;;
25091;SDS011;13082;52.374;4.946;2022-08-11T08:46:36;2.03;;;1.83;;
25091;SDS011;13082;52.374;4.946;2022-08-11T08:49:06;2.50;;;2.30;;
25091;SDS011;13082;52.374;4.946;2022-08-11T08:51:38;2.40;;;2.20;;
25091;SDS011;13082;52.374;4.946;2022-08-11T08:54:16;3.00;;;2.08;;
25091;SDS011;13082;52.374;4.946;2022-08-11T08:56:45;5.00;;;2.40;;
25091;SDS011;13082;52.374;4.946;2022-08-11T08:59:15;5.65;;;1.98;;
25091;SDS011;13082;52.374;4.946;2022-08-11T09:01:42;4.40;;;3.30;;
25091;SDS011;13082;52.374;4.946;2022-08-11T09:04:11;2.10;;;2.00;;
25091;SDS011;13082;52.374;4.946;2022-08-11T09:06:38;4.40;;;2.88;;
25091;SDS011;13082;52.374;4.946;2022-08-11T09:09:07;4.20;;;2.00;;
25091;SDS011;13082;52.374;4.946;2022-08-11T09:11:36;2.90;;;2.50;;
25091;SDS011;13082;52.374;4.946;2022-08-11T09:14:17;2.30;;;2.10;;
25091;SDS011;13082;52.374;4.946;2022-08-11T09:16:48;3.70;;;2.00;;
25091;SDS011;13082;52.374;4.946;2022-08-11T09:19:17;2.05;;;1.80;;
25091;SDS011;13082;52.374;4.946;2022-08-11T09:21:45;2.20;;;2.00;;
25091;SDS011;13082;52.374;4.946;2022-08-11T09:24:35;3.35;;;1.98;;
25091;SDS011;13082;52.374;4.946;2022-08-11T09:27:20;3.35;;;2.42;;
25091;SDS011;13082;52.374;4.946;2022-08-11T09:29:47;3.50;;;2.00;;
25091;SDS011;13082;52.374;4.946;2022-08-11T09:32:18;2.65;;;1.77;;
25091;SDS011;13082;52.374;4.946;2022-08-11T09:34:48;2.38;;;2.15;;
25091;SDS011;13082;52.374;4.946;2022-08-11T09:37:16;2.55;;;1.80;;
25091;SDS011;13082;52.374;4.946;2022-08-11T09:40:00;3.38;;;1.85;;
25091;SDS011;13082;52.374;4.946;2022-08-11T09:42:46;3.80;;;2.55;;
25091;SDS011;13082;52.374;4.946;2022-08-11T09:45:30;4.03;;;2.38;;
25091;SDS011;13082;52.374;4.946;2022-08-11T09:47:57;3.70;;;2.20;;
25091;SDS011;13082;52.374;4.946;2022-08-11T09:50:24;2.97;;;2.33;;
25091;SDS011;13082;52.374;4.946;2022-08-11T09:52:49;4.25;;;2.92;;
25091;SDS011;13082;52.374;4.946;2022-08-11T09:55:15;3.88;;;2.55;;
25091;SDS011;13082;52.374;4.946;2022-08-11T09:57:46;3.60;;;2.42;;
25091;SDS011;13082;52.374;4.946;2022-08-11T10:00:31;6.97;;;2.83;;
25091;SDS011;13082;52.374;4.946;2022-08-11T10:03:08;4.85;;;2.60;;
25091;SDS011;13082;52.374;4.946;2022-08-11T10:05:40;3.72;;;2.72;;
25091;SDS011;13082;52.374;4.946;2022-08-11T10:08:29;3.75;;;3.17;;
25091;SDS011;13082;52.374;4.946;2022-08-11T10:10:57;3.55;;;2.95;;
25091;SDS011;13082;52.374;4.946;2022-08-11T10:13:25;4.32;;;2.78;;
25091;SDS011;13082;52.374;4.946;2022-08-11T10:15:59;7.95;;;2.30;;
25091;SDS011;13082;52.374;4.946;2022-08-11T10:18:40;4.75;;;3.03;;
25091;SDS011;13082;52.374;4.946;2022-08-11T10:21:13;4.43;;;2.50;;
25091;SDS011;13082;52.374;4.946;2022-08-11T10:23:47;2.50;;;2.15;;
25091;SDS011;13082;52.374;4.946;2022-08-11T10:26:42;2.28;;;2.05;;
25091;SDS011;13082;52.374;4.946;2022-08-11T10:32:18;6.35;;;2.97;;
25091;SDS011;13082;52.374;4.946;2022-08-11T10:35:16;2.40;;;1.90;;
25091;SDS011;13082;52.374;4.946;2022-08-11T10:37:44;2.58;;;1.92;;
25091;SDS011;13082;52.374;4.946;2022-08-11T10:40:14;3.67;;;2.35;;
25091;SDS011;13082;52.374;4.946;2022-08-11T10:42:42;2.55;;;2.35;;
25091;SDS011;13082;52.374;4.946;2022-08-11T10:45:37;4.40;;;2.42;;
25091;SDS011;13082;52.374;4.946;2022-08-11T10:48:27;2.25;;;2.05;;
25091;SDS011;13082;52.374;4.946;2022-08-11T10:50:54;2.88;;;2.35;;
25091;SDS011;13082;52.374;4.946;2022-08-11T10:53:43;4.65;;;2.75;;
25091;SDS011;13082;52.374;4.946;2022-08-11T10:56:29;4.30;;;2.15;;
25091;SDS011;13082;52.374;4.946;2022-08-11T10:59:16;3.28;;;2.80;;
25091;SDS011;13082;52.374;4.946;2022-08-11T11:01:42;2.03;;;1.92;;
25091;SDS011;13082;52.374;4.946;2022-08-11T11:10:50;4.47;;;2.20;;
25091;SDS011;13082;52.374;4.946;2022-08-11T11:13:17;2.72;;;1.75;;
25091;SDS011;13082;52.374;4.946;2022-08-11T11:16:03;6.75;;;2.13;;
25091;SDS011;13082;52.374;4.946;2022-08-11T11:18:48;11.98;;;2.90;;
25091;SDS011;13082;52.374;4.946;2022-08-11T11:21:16;2.60;;;2.40;;
25091;SDS011;13082;52.374;4.946;2022-08-11T11:32:22;3.55;;;2.40;;
25091;SDS011;13082;52.374;4.946;2022-08-11T11:37:55;5.47;;;2.65;;
25091;SDS011;13082;52.374;4.946;2022-08-11T11:40:22;2.63;;;2.13;;
25091;SDS011;13082;52.374;4.946;2022-08-11T11:42:50;2.08;;;1.98;;
25091;SDS011;13082;52.374;4.946;2022-08-11T11:45:17;2.35;;;1.90;;
25091;SDS011;13082;52.374;4.946;2022-08-11T11:47:44;2.97;;;2.15;;
25091;SDS011;13082;52.374;4.946;2022-08-11T11:50:10;3.03;;;2.28;;
25091;SDS011;13082;52.374;4.946;2022-08-11T11:52:38;3.28;;;2.30;;
25091;SDS011;13082;52.374;4.946;2022-08-11T11:55:04;2.92;;;1.80;;
25091;SDS011;13082;52.374;4.946;2022-08-11T11:57:32;4.28;;;1.95;;
25091;SDS011;13082;52.374;4.946;2022-08-11T12:00:18;2.15;;;2.05;;
25091;SDS011;13082;52.374;4.946;2022-08-11T12:03:03;4.68;;;2.00;;
25091;SDS011;13082;52.374;4.946;2022-08-11T12:05:33;2.15;;;1.95;;
25091;SDS011;13082;52.374;4.946;2022-08-11T12:08:01;3.70;;;2.10;;
25091;SDS011;13082;52.374;4.946;2022-08-11T12:10:36;2.50;;;2.17;;
25091;SDS011;13082;52.374;4.946;2022-08-11T12:13:03;3.95;;;1.80;;
25091;SDS011;13082;52.374;4.946;2022-08-11T12:15:48;2.00;;;1.77;;
25091;SDS011;13082;52.374;4.946;2022-08-11T12:18:16;2.92;;;1.40;;
25091;SDS011;13082;52.374;4.946;2022-08-11T12:20:42;4.82;;;3.03;;
25091;SDS011;13082;52.374;4.946;2022-08-11T12:23:09;2.35;;;1.60;;
25091;SDS011;13082;52.374;4.946;2022-08-11T12:25:56;3.70;;;1.73;;
25091;SDS011;13082;52.374;4.946;2022-08-11T12:28:43;1.83;;;1.73;;
25091;SDS011;13082;52.374;4.946;2022-08-11T12:31:09;8.15;;;2.28;;
25091;SDS011;13082;52.374;4.946;2022-08-11T12:33:36;2.05;;;1.77;;
25091;SDS011;13082;52.374;4.946;2022-08-11T12:36:05;2.15;;;1.85;;
25091;SDS011;13082;52.374;4.946;2022-08-11T12:38:32;2.60;;;1.95;;
25091;SDS011;13082;52.374;4.946;2022-08-11T12:40:59;2.47;;;1.83;;
25091;SDS011;13082;52.374;4.946;2022-08-11T12:43:45;1.70;;;1.55;;
25091;SDS011;13082;52.374;4.946;2022-08-11T12:46:32;1.90;;;1.80;;
25091;SDS011;13082;52.374;4.946;2022-08-11T12:49:04;3.78;;;2.03;;
25091;SDS011;13082;52.374;4.946;2022-08-11T12:52:06;5.57;;;1.80;;
25091;SDS011;13082;52.374;4.946;2022-08-11T12:57:09;3.53;;;2.00;;
25091;SDS011;13082;52.374;4.946;2022-08-11T13:00:14;1.75;;;1.65;;
25091;SDS011;13082;52.374;4.946;2022-08-11T13:02:59;1.95;;;1.50;;
25091;SDS011;13082;52.374;4.946;2022-08-11T13:05:45;1.85;;;1.60;;
25091;SDS011;13082;52.374;4.946;2022-08-11T13:08:13;2.22;;;1.88;;
25091;SDS011;13082;52.374;4.946;2022-08-11T13:10:40;3.58;;;1.70;;
25091;SDS011;13082;52.374;4.946;2022-08-11T13:13:26;2.58;;;1.50;;
25091;SDS011;13082;52.374;4.946;2022-08-11T13:15:52;2.80;;;1.73;;
25091;SDS011;13082;52.374;4.946;2022-08-11T13:18:18;4.63;;;1.83;;
25091;SDS011;13082;52.374;4.946;2022-08-11T13:20:50;1.85;;;1.63;;
25091;SDS011;13082;52.374;4.946;2022-08-11T13:23:18;3.78;;;1.80;;
25091;SDS011;13082;52.374;4.946;2022-08-11T13:25:46;2.13;;;1.73;;
25091;SDS011;13082;52.374;4.946;2022-08-11T13:28:12;6.80;;;1.70;;
25091;SDS011;13082;52.374;4.946;2022-08-11T13:30:40;1.40;;;1.30;;
25091;SDS011;13082;52.374;4.946;2022-08-11T13:33:25;2.90;;;1.60;;
25091;SDS011;13082;52.374;4.946;2022-08-11T13:35:51;2.88;;;1.50;;
25091;SDS011;13082;52.374;4.946;2022-08-11T13:38:20;2.47;;;1.48;;
25091;SDS011;13082;52.374;4.946;2022-08-11T13:40:48;4.28;;;1.38;;
25091;SDS011;13082;52.374;4.946;2022-08-11T13:43:17;1.38;;;1.27;;
25091;SDS011;13082;52.374;4.946;2022-08-11T13:45:45;1.50;;;1.40;;
25091;SDS011;13082;52.374;4.946;2022-08-11T13:48:13;1.92;;;1.70;;
25091;SDS011;13082;52.374;4.946;2022-08-11T13:50:41;1.40;;;1.30;;
25091;SDS011;13082;52.374;4.946;2022-08-11T13:53:26;1.77;;;1.65;;
25091;SDS011;13082;52.374;4.946;2022-08-11T13:55:54;2.13;;;1.27;;
25091;SDS011;13082;52.374;4.946;2022-08-11T13:58:23;1.40;;;1.30;;
25091;SDS011;13082;52.374;4.946;2022-08-11T14:00:50;4.53;;;1.63;;
25091;SDS011;13082;52.374;4.946;2022-08-11T14:03:22;2.65;;;1.38;;
25091;SDS011;13082;52.374;4.946;2022-08-11T14:05:51;1.90;;;1.60;;
25091;SDS011;13082;52.374;4.946;2022-08-11T14:08:23;2.58;;;1.35;;
25091;SDS011;13082;52.374;4.946;2022-08-11T14:10:58;4.45;;;1.40;;
25091;SDS011;13082;52.374;4.946;2022-08-11T14:13:45;8.50;;;1.80;;
25091;SDS011;13082;52.374;4.946;2022-08-11T14:16:26;2.35;;;1.40;;
25091;SDS011;13082;52.374;4.946;2022-08-11T14:18:56;1.90;;;1.80;;
25091;SDS011;13082;52.374;4.946;2022-08-11T14:21:25;3.03;;;1.40;;
25091;SDS011;13082;52.374;4.946;2022-08-11T14:24:13;2.08;;;1.50;;
25091;SDS011;13082;52.374;4.946;2022-08-11T14:26:40;1.55;;;1.40;;
25091;SDS011;13082;52.374;4.946;2022-08-11T14:29:11;4.65;;;1.50;;
25091;SDS011;13082;52.374;4.946;2022-08-11T14:31:45;1.58;;;1.08;;
25091;SDS011;13082;52.374;4.946;2022-08-11T14:34:13;2.00;;;1.70;;
25091;SDS011;13082;52.374;4.946;2022-08-11T14:36:43;2.75;;;1.67;;
25091;SDS011;13082;52.374;4.946;2022-08-11T14:39:17;4.20;;;1.30;;
25091;SDS011;13082;52.374;4.946;2022-08-11T14:41:50;2.20;;;1.10;;
25091;SDS011;13082;52.374;4.946;2022-08-11T14:44:38;3.75;;;1.17;;
25091;SDS011;13082;52.374;4.946;2022-08-11T14:47:28;8.48;;;1.70;;
25091;SDS011;13082;52.374;4.946;2022-08-11T14:49:57;2.80;;;1.30;;
25091;SDS011;13082;52.374;4.946;2022-08-11T14:52:24;2.58;;;1.60;;
25091;SDS011;13082;52.374;4.946;2022-08-11T14:54:51;2.30;;;1.45;;
25091;SDS011;13082;52.374;4.946;2022-08-11T14:57:36;1.50;;;1.40;;
25091;SDS011;13082;52.374;4.946;2022-08-11T15:00:05;4.00;;;1.55;;
25091;SDS011;13082;52.374;4.946;2022-08-11T15:02:34;1.52;;;1.42;;
25091;SDS011;13082;52.374;4.946;2022-08-11T15:05:21;1.80;;;1.40;;
25091;SDS011;13082;52.374;4.946;2022-08-11T15:07:48;3.38;;;1.58;;
25091;SDS011;13082;52.374;4.946;2022-08-11T15:10:15;4.15;;;1.70;;
25091;SDS011;13082;52.374;4.946;2022-08-11T15:12:43;1.65;;;1.55;;
25091;SDS011;13082;52.374;4.946;2022-08-11T15:15:09;3.00;;;1.70;;
25091;SDS011;13082;52.374;4.946;2022-08-11T15:17:58;1.33;;;1.20;;
25091;SDS011;13082;52.374;4.946;2022-08-11T15:20:28;5.53;;;1.58;;
25091;SDS011;13082;52.374;4.946;2022-08-11T15:23:13;1.80;;;1.33;;
25091;SDS011;13082;52.374;4.946;2022-08-11T15:26:02;3.15;;;1.67;;
25091;SDS011;13082;52.374;4.946;2022-08-11T15:28:47;1.58;;;1.48;;
25091;SDS011;13082;52.374;4.946;2022-08-11T15:31:33;1.70;;;1.60;;
25091;SDS011;13082;52.374;4.946;2022-08-11T15:34:21;1.50;;;1.40;;
25091;SDS011;13082;52.374;4.946;2022-08-11T15:37:12;2.05;;;1.83;;
25091;SDS011;13082;52.374;4.946;2022-08-11T15:40:03;1.50;;;1.40;;
25091;SDS011;13082;52.374;4.946;2022-08-11T15:43:15;1.77;;;1.48;;
25091;SDS011;13082;52.374;4.946;2022-08-11T15:46:08;2.65;;;1.70;;
25091;SDS011;13082;52.374;4.946;2022-08-11T15:48:58;2.17;;;1.63;;
25091;SDS011;13082;52.374;4.946;2022-08-11T15:54:26;1.83;;;1.65;;
25091;SDS011;13082;52.374;4.946;2022-08-11T15:56:55;1.58;;;1.48;;
25091;SDS011;13082;52.374;4.946;2022-08-11T15:59:25;3.60;;;1.80;;
25091;SDS011;13082;52.374;4.946;2022-08-11T16:02:13;3.08;;;1.60;;
25091;SDS011;13082;52.374;4.946;2022-08-11T16:04:41;2.35;;;1.73;;
25091;SDS011;13082;52.374;4.946;2022-08-11T16:07:13;2.47;;;1.40;;
25091;SDS011;13082;52.374;4.946;2022-08-11T16:09:45;2.17;;;1.73;;
25091;SDS011;13082;52.374;4.946;2022-08-11T16:12:21;2.05;;;1.80;;
25091;SDS011;13082;52.374;4.946;2022-08-11T16:14:51;2.17;;;1.70;;
25091;SDS011;13082;52.374;4.946;2022-08-11T16:18:12;2.22;;;1.60;;
25091;SDS011;13082;52.374;4.946;2022-08-11T16:20:31;1.45;;;1.35;;
25091;SDS011;13082;52.374;4.946;2022-08-11T16:23:01;3.20;;;1.58;;
25091;SDS011;13082;52.374;4.946;2022-08-11T16:25:29;2.25;;;1.45;;
25091;SDS011;13082;52.374;4.946;2022-08-11T16:28:04;2.70;;;1.52;;
25091;SDS011;13082;52.374;4.946;2022-08-11T16:30:34;2.92;;;1.88;;
25091;SDS011;13082;52.374;4.946;2022-08-11T16:33:04;2.25;;;1.27;;
25091;SDS011;13082;52.374;4.946;2022-08-11T16:35:32;2.58;;;1.17;;
25091;SDS011;13082;52.374;4.946;2022-08-11T16:38:23;2.05;;;1.50;;
25091;SDS011;13082;52.374;4.946;2022-08-11T16:41:21;3.42;;;1.77;;
25091;SDS011;13082;52.374;4.946;2022-08-11T16:44:07;1.67;;;1.52;;
25091;SDS011;13082;52.374;4.946;2022-08-11T16:46:53;3.58;;;1.50;;
25091;SDS011;13082;52.374;4.946;2022-08-11T16:52:00;2.25;;;1.90;;
25091;SDS011;13082;52.374;4.946;2022-08-11T16:54:28;3.08;;;2.13;;
25091;SDS011;13082;52.374;4.946;2022-08-11T16:56:58;2.00;;;1.90;;
25091;SDS011;13082;52.374;4.946;2022-08-11T16:59:47;2.83;;;1.75;;
25091;SDS011;13082;52.374;4.946;2022-08-11T17:02:15;1.70;;;1.60;;
25091;SDS011;13082;52.374;4.946;2022-08-11T17:05:05;3.03;;;1.80;;
25091;SDS011;13082;52.374;4.946;2022-08-11T17:07:59;2.10;;;1.90;;
25091;SDS011;13082;52.374;4.946;2022-08-11T17:10:47;1.80;;;1.70;;
25091;SDS011;13082;52.374;4.946;2022-08-11T17:13:36;1.70;;;1.60;;
25091;SDS011;13082;52.374;4.946;2022-08-11T17:16:25;3.03;;;1.73;;
25091;SDS011;13082;52.374;4.946;2022-08-11T17:18:57;1.85;;;1.60;;
25091;SDS011;13082;52.374;4.946;2022-08-11T17:21:28;7.20;;;1.70;;
25091;SDS011;13082;52.374;4.946;2022-08-11T17:24:22;1.63;;;1.50;;
25091;SDS011;13082;52.374;4.946;2022-08-11T17:26:52;3.10;;;1.80;;
25091;SDS011;13082;52.374;4.946;2022-08-11T17:29:24;2.47;;;1.98;;
25091;SDS011;13082;52.374;4.946;2022-08-11T17:31:55;3.60;;;2.15;;
25091;SDS011;13082;52.374;4.946;2022-08-11T17:34:41;2.65;;;1.98;;
25091;SDS011;13082;52.374;4.946;2022-08-11T17:37:30;5.72;;;3.13;;
25091;SDS011;13082;52.374;4.946;2022-08-11T17:39:58;4.28;;;2.67;;
25091;SDS011;13082;52.374;4.946;2022-08-11T17:42:27;2.20;;;2.00;;
25091;SDS011;13082;52.374;4.946;2022-08-11T17:45:14;1.88;;;1.58;;
25091;SDS011;13082;52.374;4.946;2022-08-11T17:48:17;1.83;;;1.63;;
25091;SDS011;13082;52.374;4.946;2022-08-11T17:50:51;1.92;;;1.83;;
25091;SDS011;13082;52.374;4.946;2022-08-11T17:53:19;3.80;;;1.80;;
25091;SDS011;13082;52.374;4.946;2022-08-11T17:56:04;2.17;;;2.00;;
25091;SDS011;13082;52.374;4.946;2022-08-11T17:58:58;2.58;;;2.03;;
25091;SDS011;13082;52.374;4.946;2022-08-11T18:01:43;4.32;;;1.80;;
25091;SDS011;13082;52.374;4.946;2022-08-11T18:04:11;2.30;;;2.03;;
25091;SDS011;13082;52.374;4.946;2022-08-11T18:06:38;2.10;;;1.90;;
25091;SDS011;13082;52.374;4.946;2022-08-11T18:09:07;3.47;;;2.10;;
25091;SDS011;13082;52.374;4.946;2022-08-11T18:11:54;2.25;;;1.90;;
25091;SDS011;13082;52.374;4.946;2022-08-11T18:14:41;3.92;;;2.42;;
25091;SDS011;13082;52.374;4.946;2022-08-11T18:17:28;3.30;;;1.83;;
25091;SDS011;13082;52.374;4.946;2022-08-11T18:20:13;4.13;;;1.80;;
25091;SDS011;13082;52.374;4.946;2022-08-11T18:22:57;6.05;;;2.30;;
25091;SDS011;13082;52.374;4.946;2022-08-11T18:25:46;3.03;;;1.88;;
25091;SDS011;13082;52.374;4.946;2022-08-11T18:28:38;2.05;;;1.95;;
25091;SDS011;13082;52.374;4.946;2022-08-11T18:31:28;1.85;;;1.35;;
25091;SDS011;13082;52.374;4.946;2022-08-11T18:34:15;3.45;;;1.42;;
25091;SDS011;13082;52.374;4.946;2022-08-11T18:37:09;4.30;;;1.67;;
25091;SDS011;13082;52.374;4.946;2022-08-11T18:40:09;1.60;;;1.45;;
25091;SDS011;13082;52.374;4.946;2022-08-11T18:42:59;4.65;;;1.67;;
25091;SDS011;13082;52.374;4.946;2022-08-11T18:45:46;3.50;;;1.67;;
25091;SDS011;13082;52.374;4.946;2022-08-11T18:48:36;3.08;;;1.80;;
25091;SDS011;13082;52.374;4.946;2022-08-11T18:51:24;4.13;;;1.70;;
25091;SDS011;13082;52.374;4.946;2022-08-11T18:54:11;1.88;;;1.73;;
25091;SDS011;13082;52.374;4.946;2022-08-11T18:56:57;2.40;;;2.20;;
25091;SDS011;13082;52.374;4.946;2022-08-11T18:59:44;3.35;;;1.95;;
25091;SDS011;13082;52.374;4.946;2022-08-11T19:02:31;5.38;;;2.95;;
25091;SDS011;13082;52.374;4.946;2022-08-11T19:05:19;9.55;;;2.40;;
25091;SDS011;13082;52.374;4.946;2022-08-11T19:08:04;2.60;;;1.60;;
25091;SDS011;13082;52.374;4.946;2022-08-11T19:10:51;1.95;;;1.80;;
25091;SDS011;13082;52.374;4.946;2022-08-11T19:13:38;2.90;;;1.63;;
25091;SDS011;13082;52.374;4.946;2022-08-11T19:16:23;2.65;;;1.52;;
25091;SDS011;13082;52.374;4.946;2022-08-11T19:19:07;3.70;;;1.50;;
25091;SDS011;13082;52.374;4.946;2022-08-11T19:21:53;1.95;;;1.40;;
25091;SDS011;13082;52.374;4.946;2022-08-11T19:24:38;3.85;;;1.60;;
25091;SDS011;13082;52.374;4.946;2022-08-11T19:27:25;4.03;;;1.90;;
25091;SDS011;13082;52.374;4.946;2022-08-11T19:30:10;3.03;;;1.27;;